Hurt, Virginia
Current Conditions -  °F | °C
As of 4:35 PM on Saturday 25 Oct 2014 (Local Time) from K0V4 Reporting Station
Clear Clear  
Wind Chill: 71°   Ceiling: Unl
Heat Index: 71°   Visibility: 10mi
Dew Point: 46°   Wind: 7mph
Humidity: 41%   Direction: 240°WSW
Pressure: 29.87"   Gusts: NA
Location:  37.09°N, 79.3°W
Report Text: K0V4 252035Z AUTO 24006KT 10SM CLR 22/08 A2987 RMK AO1 T02160077
Loading
Personal Weather Stations






























Interactive Weather Map
Tropical Storm Tracking
New forecast layout! Learn more

10-Day Weather Forecast

Advertisements
Track Severe Weather on mobile